sensor_id;sensor_type;location;lat;lon;timestamp;temperature;humidity
19449;DHT22;9863;49.404;8.246;2023-02-28T00:01:28;-0.70;99.90
19449;DHT22;9863;49.404;8.246;2023-02-28T00:03:56;-0.70;99.90
19449;DHT22;9863;49.404;8.246;2023-02-28T00:06:25;-0.20;99.90
19449;DHT22;9863;49.404;8.246;2023-02-28T00:08:52;-0.70;99.90
19449;DHT22;9863;49.404;8.246;2023-02-28T00:11:20;-0.70;99.90
19449;DHT22;9863;49.404;8.246;2023-02-28T00:13:48;-0.70;99.90
19449;DHT22;9863;49.404;8.246;2023-02-28T00:16:20;-0.70;99.90
19449;DHT22;9863;49.404;8.246;2023-02-28T00:18:49;-0.70;99.90
19449;DHT22;9863;49.404;8.246;2023-02-28T00:21:18;-0.70;99.90
19449;DHT22;9863;49.404;8.246;2023-02-28T00:23:46;-0.70;99.90
19449;DHT22;9863;49.404;8.246;2023-02-28T00:26:13;-0.50;99.90
19449;DHT22;9863;49.404;8.246;2023-02-28T00:28:40;-0.50;99.90
19449;DHT22;9863;49.404;8.246;2023-02-28T00:31:07;-0.70;99.90
19449;DHT22;9863;49.404;8.246;2023-02-28T00:33:34;-0.80;99.90
19449;DHT22;9863;49.404;8.246;2023-02-28T00:36:06;-0.50;99.90
19449;DHT22;9863;49.404;8.246;2023-02-28T00:38:35;-0.80;99.90
19449;DHT22;9863;49.404;8.246;2023-02-28T00:41:03;-0.90;99.90
19449;DHT22;9863;49.404;8.246;2023-02-28T00:43:37;-0.90;99.90
19449;DHT22;9863;49.404;8.246;2023-02-28T00:46:06;-1.00;99.90
19449;DHT22;9863;49.404;8.246;2023-02-28T00:48:34;-0.90;99.90
19449;DHT22;9863;49.404;8.246;2023-02-28T00:51:01;-1.10;99.90
19449;DHT22;9863;49.404;8.246;2023-02-28T00:53:29;-1.10;99.90
19449;DHT22;9863;49.404;8.246;2023-02-28T00:55:56;-1.10;99.90
19449;DHT22;9863;49.404;8.246;2023-02-28T00:58:24;-1.00;99.90
19449;DHT22;9863;49.404;8.246;2023-02-28T01:00:54;-1.20;99.90
19449;DHT22;9863;49.404;8.246;2023-02-28T01:03:22;-1.30;99.90
19449;DHT22;9863;49.404;8.246;2023-02-28T01:05:49;-1.30;99.90
19449;DHT22;9863;49.404;8.246;2023-02-28T01:08:17;-1.30;99.90
19449;DHT22;9863;49.404;8.246;2023-02-28T01:10:44;-1.30;99.90
19449;DHT22;9863;49.404;8.246;2023-02-28T01:13:12;-1.30;99.90
19449;DHT22;9863;49.404;8.246;2023-02-28T01:18:32;-1.40;99.90
19449;DHT22;9863;49.404;8.246;2023-02-28T01:21:07;-0.50;99.90
19449;DHT22;9863;49.404;8.246;2023-02-28T01:23:36;-1.40;99.90
19449;DHT22;9863;49.404;8.246;2023-02-28T01:26:14;-0.40;99.90
19449;DHT22;9863;49.404;8.246;2023-02-28T01:28:45;-1.40;99.90
19449;DHT22;9863;49.404;8.246;2023-02-28T01:31:12;-1.40;99.90
19449;DHT22;9863;49.404;8.246;2023-02-28T01:33:40;-1.50;99.90
19449;DHT22;9863;49.404;8.246;2023-02-28T01:36:18;-1.50;99.90
19449;DHT22;9863;49.404;8.246;2023-02-28T01:38:47;-1.50;99.90
19449;DHT22;9863;49.404;8.246;2023-02-28T01:46:13;-1.60;99.90
19449;DHT22;9863;49.404;8.246;2023-02-28T01:51:17;-1.60;99.90
19449;DHT22;9863;49.404;8.246;2023-02-28T01:53:51;-1.70;99.90
19449;DHT22;9863;49.404;8.246;2023-02-28T01:56:26;-1.70;99.90
19449;DHT22;9863;49.404;8.246;2023-02-28T01:58:55;-1.80;99.90
19449;DHT22;9863;49.404;8.246;2023-02-28T02:01:23;-1.80;99.90
19449;DHT22;9863;49.404;8.246;2023-02-28T02:04:00;-1.80;99.90
19449;DHT22;9863;49.404;8.246;2023-02-28T02:06:34;-1.90;99.90
19449;DHT22;9863;49.404;8.246;2023-02-28T02:09:03;-1.90;99.90
19449;DHT22;9863;49.404;8.246;2023-02-28T02:11:30;-2.00;99.90
19449;DHT22;9863;49.404;8.246;2023-02-28T02:17:39;-2.00;99.90
19449;DHT22;9863;49.404;8.246;2023-02-28T02:25:44;-2.00;99.90
19449;DHT22;9863;49.404;8.246;2023-02-28T02:28:54;-1.90;99.90
19449;DHT22;9863;49.404;8.246;2023-02-28T02:31:56;-2.00;99.90
19449;DHT22;9863;49.404;8.246;2023-02-28T02:34:48;-2.50;99.90
19449;DHT22;9863;49.404;8.246;2023-02-28T02:37:33;-2.00;99.90
19449;DHT22;9863;49.404;8.246;2023-02-28T02:42:52;-2.10;99.90
19449;DHT22;9863;49.404;8.246;2023-02-28T02:45:38;-2.10;99.90
19449;DHT22;9863;49.404;8.246;2023-02-28T02:48:15;-2.10;99.90
19449;DHT22;9863;49.404;8.246;2023-02-28T02:50:46;-2.10;99.90
19449;DHT22;9863;49.404;8.246;2023-02-28T02:53:21;-2.10;99.90
19449;DHT22;9863;49.404;8.246;2023-02-28T02:55:52;-2.10;99.90
19449;DHT22;9863;49.404;8.246;2023-02-28T02:58:25;-2.10;99.90
19449;DHT22;9863;49.404;8.246;2023-02-28T03:00:59;-2.10;99.90
19449;DHT22;9863;49.404;8.246;2023-02-28T03:03:28;-2.00;99.90
19449;DHT22;9863;49.404;8.246;2023-02-28T03:06:00;-2.20;99.90
19449;DHT22;9863;49.404;8.246;2023-02-28T03:08:29;-2.20;99.90
19449;DHT22;9863;49.404;8.246;2023-02-28T03:11:03;-2.20;99.90
19449;DHT22;9863;49.404;8.246;2023-02-28T03:14:04;-2.20;99.90
19449;DHT22;9863;49.404;8.246;2023-02-28T03:20:10;-2.80;99.90
19449;DHT22;9863;49.404;8.246;2023-02-28T03:23:26;-2.90;99.90
19449;DHT22;9863;49.404;8.246;2023-02-28T03:26:06;-2.20;99.90
19449;DHT22;9863;49.404;8.246;2023-02-28T03:29:26;-2.90;99.90
19449;DHT22;9863;49.404;8.246;2023-02-28T03:31:59;-3.00;99.90
19449;DHT22;9863;49.404;8.246;2023-02-28T03:34:38;-2.90;99.90
19449;DHT22;9863;49.404;8.246;2023-02-28T03:37:11;-2.90;99.90
19449;DHT22;9863;49.404;8.246;2023-02-28T03:40:04;-3.00;99.90
19449;DHT22;9863;49.404;8.246;2023-02-28T03:42:37;-3.00;99.90
19449;DHT22;9863;49.404;8.246;2023-02-28T03:45:21;-2.90;99.90
19449;DHT22;9863;49.404;8.246;2023-02-28T03:48:02;-3.00;99.90
19449;DHT22;9863;49.404;8.246;2023-02-28T03:50:40;-3.00;99.90
19449;DHT22;9863;49.404;8.246;2023-02-28T03:53:13;-3.10;99.90
19449;DHT22;9863;49.404;8.246;2023-02-28T03:55:51;-3.10;99.90
19449;DHT22;9863;49.404;8.246;2023-02-28T03:58:37;-1.90;99.90
19449;DHT22;9863;49.404;8.246;2023-02-28T04:01:20;-3.10;99.90
19449;DHT22;9863;49.404;8.246;2023-02-28T04:03:51;-3.00;99.90
19449;DHT22;9863;49.404;8.246;2023-02-28T04:06:21;-3.10;99.90
19449;DHT22;9863;49.404;8.246;2023-02-28T04:08:50;-2.50;99.90
19449;DHT22;9863;49.404;8.246;2023-02-28T04:14:05;-3.10;99.90
19449;DHT22;9863;49.404;8.246;2023-02-28T04:16:34;-3.10;99.90
19449;DHT22;9863;49.404;8.246;2023-02-28T04:19:06;-3.10;99.90
19449;DHT22;9863;49.404;8.246;2023-02-28T04:21:40;-3.10;99.90
19449;DHT22;9863;49.404;8.246;2023-02-28T04:24:11;-3.20;99.90
19449;DHT22;9863;49.404;8.246;2023-02-28T04:26:48;-3.10;99.90
19449;DHT22;9863;49.404;8.246;2023-02-28T04:29:25;-2.50;99.90
19449;DHT22;9863;49.404;8.246;2023-02-28T04:31:57;-3.20;99.90
19449;DHT22;9863;49.404;8.246;2023-02-28T04:34:27;-3.20;99.90
19449;DHT22;9863;49.404;8.246;2023-02-28T04:36:56;-3.20;99.90
19449;DHT22;9863;49.404;8.246;2023-02-28T04:39:40;-3.20;99.90
19449;DHT22;9863;49.404;8.246;2023-02-28T04:42:08;-3.20;99.90
19449;DHT22;9863;49.404;8.246;2023-02-28T04:44:35;-3.30;99.90
19449;DHT22;9863;49.404;8.246;2023-02-28T04:47:03;-3.30;99.90
19449;DHT22;9863;49.404;8.246;2023-02-28T04:49:30;-2.90;99.90
19449;DHT22;9863;49.404;8.246;2023-02-28T04:51:57;-3.30;99.90
19449;DHT22;9863;49.404;8.246;2023-02-28T04:54:24;-3.40;99.90
19449;DHT22;9863;49.404;8.246;2023-02-28T04:56:51;-3.40;99.90
19449;DHT22;9863;49.404;8.246;2023-02-28T04:59:18;-3.50;99.90
19449;DHT22;9863;49.404;8.246;2023-02-28T05:01:46;-3.00;99.90
19449;DHT22;9863;49.404;8.246;2023-02-28T05:04:15;-2.40;99.90
19449;DHT22;9863;49.404;8.246;2023-02-28T05:06:48;-3.50;99.90
19449;DHT22;9863;49.404;8.246;2023-02-28T05:09:15;-3.50;99.90
19449;DHT22;9863;49.404;8.246;2023-02-28T05:11:42;-3.50;99.90
19449;DHT22;9863;49.404;8.246;2023-02-28T05:14:13;-3.50;99.90
19449;DHT22;9863;49.404;8.246;2023-02-28T05:16:41;-3.50;99.90
19449;DHT22;9863;49.404;8.246;2023-02-28T05:19:08;-3.50;99.90
19449;DHT22;9863;49.404;8.246;2023-02-28T05:21:40;-2.40;99.90
19449;DHT22;9863;49.404;8.246;2023-02-28T05:24:12;-2.20;99.90
19449;DHT22;9863;49.404;8.246;2023-02-28T05:26:41;-3.40;99.90
19449;DHT22;9863;49.404;8.246;2023-02-28T05:29:10;-2.80;99.90
19449;DHT22;9863;49.404;8.246;2023-02-28T05:31:37;-2.10;99.90
19449;DHT22;9863;49.404;8.246;2023-02-28T05:34:05;-2.10;99.90
19449;DHT22;9863;49.404;8.246;2023-02-28T05:36:32;-2.00;99.90
19449;DHT22;9863;49.404;8.246;2023-02-28T05:38:59;-2.10;99.90
19449;DHT22;9863;49.404;8.246;2023-02-28T05:41:26;-2.30;99.90
19449;DHT22;9863;49.404;8.246;2023-02-28T05:43:54;-1.80;99.90
19449;DHT22;9863;49.404;8.246;2023-02-28T05:46:22;-3.00;99.90
19449;DHT22;9863;49.404;8.246;2023-02-28T05:48:49;-3.00;99.90
19449;DHT22;9863;49.404;8.246;2023-02-28T05:51:17;-2.90;99.90
19449;DHT22;9863;49.404;8.246;2023-02-28T05:53:44;-2.90;99.90
19449;DHT22;9863;49.404;8.246;2023-02-28T05:56:11;-2.80;99.90
19449;DHT22;9863;49.404;8.246;2023-02-28T05:58:38;-2.80;99.90
19449;DHT22;9863;49.404;8.246;2023-02-28T06:01:33;-2.80;99.90
19449;DHT22;9863;49.404;8.246;2023-02-28T06:04:16;-2.80;99.90
19449;DHT22;9863;49.404;8.246;2023-02-28T06:06:57;-2.70;99.90
19449;DHT22;9863;49.404;8.246;2023-02-28T06:09:24;-2.70;99.90
19449;DHT22;9863;49.404;8.246;2023-02-28T06:11:51;-2.70;99.90
19449;DHT22;9863;49.404;8.246;2023-02-28T06:14:20;-2.70;99.90
19449;DHT22;9863;49.404;8.246;2023-02-28T06:16:47;-2.70;99.90
19449;DHT22;9863;49.404;8.246;2023-02-28T06:19:15;-2.60;99.90
19449;DHT22;9863;49.404;8.246;2023-02-28T06:21:42;-1.80;99.90
19449;DHT22;9863;49.404;8.246;2023-02-28T06:24:09;-2.60;99.90
19449;DHT22;9863;49.404;8.246;2023-02-28T06:26:37;-2.60;99.90
19449;DHT22;9863;49.404;8.246;2023-02-28T06:29:04;-2.50;99.90
19449;DHT22;9863;49.404;8.246;2023-02-28T06:31:31;-2.50;99.90
19449;DHT22;9863;49.404;8.246;2023-02-28T06:33:59;-2.50;99.90
19449;DHT22;9863;49.404;8.246;2023-02-28T06:36:26;-2.10;99.90
19449;DHT22;9863;49.404;8.246;2023-02-28T06:38:53;-2.50;99.90
19449;DHT22;9863;49.404;8.246;2023-02-28T06:41:24;-2.40;99.90
19449;DHT22;9863;49.404;8.246;2023-02-28T06:43:53;-1.90;99.90
19449;DHT22;9863;49.404;8.246;2023-02-28T06:46:20;-2.40;99.90
19449;DHT22;9863;49.404;8.246;2023-02-28T06:48:48;-1.90;99.90
19449;DHT22;9863;49.404;8.246;2023-02-28T06:51:18;-2.30;99.90
19449;DHT22;9863;49.404;8.246;2023-02-28T06:53:49;-2.30;99.90
19449;DHT22;9863;49.404;8.246;2023-02-28T06:56:17;-2.20;99.90
19449;DHT22;9863;49.404;8.246;2023-02-28T06:58:48;-1.10;99.90
19449;DHT22;9863;49.404;8.246;2023-02-28T07:01:16;-2.10;99.90
19449;DHT22;9863;49.404;8.246;2023-02-28T07:03:44;-2.10;99.90
19449;DHT22;9863;49.404;8.246;2023-02-28T07:06:12;-2.10;99.90
19449;DHT22;9863;49.404;8.246;2023-02-28T07:08:39;-2.10;99.90
19449;DHT22;9863;49.404;8.246;2023-02-28T07:11:07;-2.00;99.90
19449;DHT22;9863;49.404;8.246;2023-02-28T07:13:35;-1.10;99.90
19449;DHT22;9863;49.404;8.246;2023-02-28T07:16:04;-1.90;99.90
19449;DHT22;9863;49.404;8.246;2023-02-28T07:18:33;-1.90;99.90
19449;DHT22;9863;49.404;8.246;2023-02-28T07:21:08;-1.90;99.90
19449;DHT22;9863;49.404;8.246;2023-02-28T07:23:36;-1.40;99.90
19449;DHT22;9863;49.404;8.246;2023-02-28T07:26:12;-1.70;99.90
19449;DHT22;9863;49.404;8.246;2023-02-28T07:28:42;-1.70;99.90
19449;DHT22;9863;49.404;8.246;2023-02-28T07:31:10;-1.20;99.90
19449;DHT22;9863;49.404;8.246;2023-02-28T07:33:38;-1.60;99.90
19449;DHT22;9863;49.404;8.246;2023-02-28T07:36:11;-1.50;99.90
19449;DHT22;9863;49.404;8.246;2023-02-28T07:38:43;-1.50;99.90
19449;DHT22;9863;49.404;8.246;2023-02-28T07:41:18;-1.20;99.90
19449;DHT22;9863;49.404;8.246;2023-02-28T07:43:48;-0.50;99.90
19449;DHT22;9863;49.404;8.246;2023-02-28T07:46:16;-1.30;99.90
19449;DHT22;9863;49.404;8.246;2023-02-28T07:48:44;-1.30;99.90
19449;DHT22;9863;49.404;8.246;2023-02-28T07:51:11;-1.20;99.90
19449;DHT22;9863;49.404;8.246;2023-02-28T07:53:39;0.00;99.90
19449;DHT22;9863;49.404;8.246;2023-02-28T07:56:06;-1.10;99.90
19449;DHT22;9863;49.404;8.246;2023-02-28T07:58:34;-0.30;99.90
19449;DHT22;9863;49.404;8.246;2023-02-28T08:01:09;-1.00;99.90
19449;DHT22;9863;49.404;8.246;2023-02-28T08:03:37;-0.90;99.90
19449;DHT22;9863;49.404;8.246;2023-02-28T08:06:13;-0.80;99.90
19449;DHT22;9863;49.404;8.246;2023-02-28T08:08:48;-0.70;99.90
19449;DHT22;9863;49.404;8.246;2023-02-28T08:11:16;-0.20;99.90
19449;DHT22;9863;49.404;8.246;2023-02-28T08:13:44;-0.50;99.90
19449;DHT22;9863;49.404;8.246;2023-02-28T08:16:13;-0.60;99.90
19449;DHT22;9863;49.404;8.246;2023-02-28T08:18:52;-0.40;99.90
19449;DHT22;9863;49.404;8.246;2023-02-28T08:21:20;-0.30;99.90
19449;DHT22;9863;49.404;8.246;2023-02-28T08:23:48;0.30;99.90
19449;DHT22;9863;49.404;8.246;2023-02-28T08:26:17;-0.20;99.90
19449;DHT22;9863;49.404;8.246;2023-02-28T08:28:45;0.30;99.90
19449;DHT22;9863;49.404;8.246;2023-02-28T08:31:15;0.10;99.90
19449;DHT22;9863;49.404;8.246;2023-02-28T08:33:43;0.30;99.90
19449;DHT22;9863;49.404;8.246;2023-02-28T08:36:11;0.40;99.90
19449;DHT22;9863;49.404;8.246;2023-02-28T08:38:39;0.40;99.90
19449;DHT22;9863;49.404;8.246;2023-02-28T08:41:09;0.50;99.90
19449;DHT22;9863;49.404;8.246;2023-02-28T08:43:38;0.60;99.90
19449;DHT22;9863;49.404;8.246;2023-02-28T08:46:07;0.80;99.90
19449;DHT22;9863;49.404;8.246;2023-02-28T08:48:35;0.90;99.90
19449;DHT22;9863;49.404;8.246;2023-02-28T08:51:06;1.10;99.90
19449;DHT22;9863;49.404;8.246;2023-02-28T08:53:37;0.90;99.90
19449;DHT22;9863;49.404;8.246;2023-02-28T08:56:08;1.00;99.90
19449;DHT22;9863;49.404;8.246;2023-02-28T08:58:36;1.00;99.90
19449;DHT22;9863;49.404;8.246;2023-02-28T09:01:17;1.10;99.90
19449;DHT22;9863;49.404;8.246;2023-02-28T09:03:48;1.20;99.90
19449;DHT22;9863;49.404;8.246;2023-02-28T09:06:18;1.20;99.90
19449;DHT22;9863;49.404;8.246;2023-02-28T09:08:46;1.30;99.90
19449;DHT22;9863;49.404;8.246;2023-02-28T09:11:13;1.30;99.90
19449;DHT22;9863;49.404;8.246;2023-02-28T09:13:41;1.40;99.90
19449;DHT22;9863;49.404;8.246;2023-02-28T09:16:12;1.80;99.90
19449;DHT22;9863;49.404;8.246;2023-02-28T09:18:40;1.70;99.90
19449;DHT22;9863;49.404;8.246;2023-02-28T09:21:10;1.80;99.90
19449;DHT22;9863;49.404;8.246;2023-02-28T09:23:43;1.70;99.90
19449;DHT22;9863;49.404;8.246;2023-02-28T09:26:22;1.00;99.90
19449;DHT22;9863;49.404;8.246;2023-02-28T09:28:51;1.80;99.90
19449;DHT22;9863;49.404;8.246;2023-02-28T09:31:23;1.80;99.90
19449;DHT22;9863;49.404;8.246;2023-02-28T09:33:53;1.80;99.90
19449;DHT22;9863;49.404;8.246;2023-02-28T09:36:23;2.20;99.90
19449;DHT22;9863;49.404;8.246;2023-02-28T09:39:07;2.20;99.90
19449;DHT22;9863;49.404;8.246;2023-02-28T09:41:43;2.60;99.90
19449;DHT22;9863;49.404;8.246;2023-02-28T09:44:37;2.10;99.90
19449;DHT22;9863;49.404;8.246;2023-02-28T09:52:46;2.40;99.90
19449;DHT22;9863;49.404;8.246;2023-02-28T09:57:42;2.70;99.90
19449;DHT22;9863;49.404;8.246;2023-02-28T10:00:20;2.50;99.90
19449;DHT22;9863;49.404;8.246;2023-02-28T10:05:30;2.50;99.90
19449;DHT22;9863;49.404;8.246;2023-02-28T10:10:45;2.80;99.90
19449;DHT22;9863;49.404;8.246;2023-02-28T10:17:19;2.80;99.90
19449;DHT22;9863;49.404;8.246;2023-02-28T10:22:17;2.50;99.90
19449;DHT22;9863;49.404;8.246;2023-02-28T10:24:52;2.60;99.90
19449;DHT22;9863;49.404;8.246;2023-02-28T10:27:25;2.60;99.90
19449;DHT22;9863;49.404;8.246;2023-02-28T10:29:58;2.50;99.90
19449;DHT22;9863;49.404;8.246;2023-02-28T10:32:30;2.50;99.90
19449;DHT22;9863;49.404;8.246;2023-02-28T10:37:43;2.90;99.90
19449;DHT22;9863;49.404;8.246;2023-02-28T10:46:00;3.40;99.90
19449;DHT22;9863;49.404;8.246;2023-02-28T10:51:11;4.10;99.90
19449;DHT22;9863;49.404;8.246;2023-02-28T10:53:54;4.40;99.90
19449;DHT22;9863;49.404;8.246;2023-02-28T10:56:29;4.40;99.90
19449;DHT22;9863;49.404;8.246;2023-02-28T11:01:45;4.40;99.90
19449;DHT22;9863;49.404;8.246;2023-02-28T11:09:53;5.50;99.90
19449;DHT22;9863;49.404;8.246;2023-02-28T11:12:38;5.20;99.90
19449;DHT22;9863;49.404;8.246;2023-02-28T11:18:06;5.70;99.90
19449;DHT22;9863;49.404;8.246;2023-02-28T11:20:54;5.50;99.90
19449;DHT22;9863;49.404;8.246;2023-02-28T11:23:25;5.90;99.90
19449;DHT22;9863;49.404;8.246;2023-02-28T11:25:58;5.50;99.90
19449;DHT22;9863;49.404;8.246;2023-02-28T11:28:35;5.30;99.90
19449;DHT22;9863;49.404;8.246;2023-02-28T11:33:50;6.00;99.90
19449;DHT22;9863;49.404;8.246;2023-02-28T11:36:31;6.20;99.90
19449;DHT22;9863;49.404;8.246;2023-02-28T11:39:03;6.30;99.90
19449;DHT22;9863;49.404;8.246;2023-02-28T11:42:37;6.50;99.90
19449;DHT22;9863;49.404;8.246;2023-02-28T11:56:52;6.30;99.90
19449;DHT22;9863;49.404;8.246;2023-02-28T12:04:42;6.00;99.90
19449;DHT22;9863;49.404;8.246;2023-02-28T12:10:21;6.80;99.90
19449;DHT22;9863;49.404;8.246;2023-02-28T12:13:25;6.80;99.90
19449;DHT22;9863;49.404;8.246;2023-02-28T12:19:00;6.00;99.90
19449;DHT22;9863;49.404;8.246;2023-02-28T12:27:15;6.10;99.90
19449;DHT22;9863;49.404;8.246;2023-02-28T12:29:54;6.80;99.90
19449;DHT22;9863;49.404;8.246;2023-02-28T12:37:45;7.80;99.90
19449;DHT22;9863;49.404;8.246;2023-02-28T12:40:21;7.40;99.90
19449;DHT22;9863;49.404;8.246;2023-02-28T12:42:58;7.30;99.90
19449;DHT22;9863;49.404;8.246;2023-02-28T12:45:42;7.40;99.90
19449;DHT22;9863;49.404;8.246;2023-02-28T12:48:15;7.20;99.90
19449;DHT22;9863;49.404;8.246;2023-02-28T12:50:50;7.10;99.90
19449;DHT22;9863;49.404;8.246;2023-02-28T13:11:39;7.10;99.90
19449;DHT22;9863;49.404;8.246;2023-02-28T13:14:30;7.40;99.90
19449;DHT22;9863;49.404;8.246;2023-02-28T13:19:39;7.20;99.90
19449;DHT22;9863;49.404;8.246;2023-02-28T13:22:19;6.90;99.90
19449;DHT22;9863;49.404;8.246;2023-02-28T13:28:10;7.40;99.90
19449;DHT22;9863;49.404;8.246;2023-02-28T13:33:34;7.00;99.90
19449;DHT22;9863;49.404;8.246;2023-02-28T13:51:53;8.00;99.90
19449;DHT22;9863;49.404;8.246;2023-02-28T13:54:43;7.70;99.90
19449;DHT22;9863;49.404;8.246;2023-02-28T14:05:44;7.30;99.90
19449;DHT22;9863;49.404;8.246;2023-02-28T14:08:22;7.80;99.90
19449;DHT22;9863;49.404;8.246;2023-02-28T14:11:02;8.10;99.90
19449;DHT22;9863;49.404;8.246;2023-02-28T14:13:38;8.10;99.90
19449;DHT22;9863;49.404;8.246;2023-02-28T14:16:17;7.80;99.90
19449;DHT22;9863;49.404;8.246;2023-02-28T14:18:51;7.90;99.90
19449;DHT22;9863;49.404;8.246;2023-02-28T14:21:29;7.90;99.90
19449;DHT22;9863;49.404;8.246;2023-02-28T14:36:50;7.70;99.90
19449;DHT22;9863;49.404;8.246;2023-02-28T14:39:22;7.80;99.90
19449;DHT22;9863;49.404;8.246;2023-02-28T14:41:51;7.80;99.90
19449;DHT22;9863;49.404;8.246;2023-02-28T14:44:24;7.80;99.90
19449;DHT22;9863;49.404;8.246;2023-02-28T14:47:01;8.10;99.90
19449;DHT22;9863;49.404;8.246;2023-02-28T14:49:37;7.90;99.90
19449;DHT22;9863;49.404;8.246;2023-02-28T14:54:40;7.60;99.90
19449;DHT22;9863;49.404;8.246;2023-02-28T14:57:31;7.70;99.90
19449;DHT22;9863;49.404;8.246;2023-02-28T15:00:16;7.90;99.90
19449;DHT22;9863;49.404;8.246;2023-02-28T15:02:55;7.90;99.90
19449;DHT22;9863;49.404;8.246;2023-02-28T15:05:34;7.90;99.90
19449;DHT22;9863;49.404;8.246;2023-02-28T15:08:18;8.10;99.90
19449;DHT22;9863;49.404;8.246;2023-02-28T15:11:02;8.20;99.90
19449;DHT22;9863;49.404;8.246;2023-02-28T15:13:43;8.00;99.90
19449;DHT22;9863;49.404;8.246;2023-02-28T15:16:19;7.80;99.90
19449;DHT22;9863;49.404;8.246;2023-02-28T15:18:55;7.80;99.90
19449;DHT22;9863;49.404;8.246;2023-02-28T15:21:27;7.70;99.90
19449;DHT22;9863;49.404;8.246;2023-02-28T15:24:06;7.70;99.90
19449;DHT22;9863;49.404;8.246;2023-02-28T15:26:52;7.50;99.90
19449;DHT22;9863;49.404;8.246;2023-02-28T15:29:23;7.50;99.90
19449;DHT22;9863;49.404;8.246;2023-02-28T15:32:01;7.70;99.90
19449;DHT22;9863;49.404;8.246;2023-02-28T15:34:37;7.80;99.90
19449;DHT22;9863;49.404;8.246;2023-02-28T15:42:41;7.60;99.90
19449;DHT22;9863;49.404;8.246;2023-02-28T15:45:29;7.60;99.90
19449;DHT22;9863;49.404;8.246;2023-02-28T15:48:12;7.60;99.90
19449;DHT22;9863;49.404;8.246;2023-02-28T15:50:42;7.20;99.90
19449;DHT22;9863;49.404;8.246;2023-02-28T15:53:17;7.10;99.90
19449;DHT22;9863;49.404;8.246;2023-02-28T15:57:01;7.30;99.90
19449;DHT22;9863;49.404;8.246;2023-02-28T15:59:07;7.00;99.90
19449;DHT22;9863;49.404;8.246;2023-02-28T16:01:42;7.10;99.90
19449;DHT22;9863;49.404;8.246;2023-02-28T16:04:17;7.10;99.90
19449;DHT22;9863;49.404;8.246;2023-02-28T16:06:46;6.60;99.90
19449;DHT22;9863;49.404;8.246;2023-02-28T16:09:28;6.40;99.90
19449;DHT22;9863;49.404;8.246;2023-02-28T16:12:01;6.40;99.90
19449;DHT22;9863;49.404;8.246;2023-02-28T16:14:30;6.40;99.90
19449;DHT22;9863;49.404;8.246;2023-02-28T16:17:07;6.50;99.90
19449;DHT22;9863;49.404;8.246;2023-02-28T16:19:36;6.10;99.90
19449;DHT22;9863;49.404;8.246;2023-02-28T16:22:03;6.00;99.90
19449;DHT22;9863;49.404;8.246;2023-02-28T16:24:31;5.80;99.90
19449;DHT22;9863;49.404;8.246;2023-02-28T16:26:58;5.60;99.90
19449;DHT22;9863;49.404;8.246;2023-02-28T16:29:29;5.50;99.90
19449;DHT22;9863;49.404;8.246;2023-02-28T16:32:00;5.60;99.90
19449;DHT22;9863;49.404;8.246;2023-02-28T16:34:27;5.30;99.90
19449;DHT22;9863;49.404;8.246;2023-02-28T16:36:54;5.40;99.90
19449;DHT22;9863;49.404;8.246;2023-02-28T16:39:21;5.20;99.90
19449;DHT22;9863;49.404;8.246;2023-02-28T16:41:50;5.10;99.90
19449;DHT22;9863;49.404;8.246;2023-02-28T16:44:29;5.00;99.90
19449;DHT22;9863;49.404;8.246;2023-02-28T16:47:01;4.90;99.90
19449;DHT22;9863;49.404;8.246;2023-02-28T16:49:29;4.80;99.90
19449;DHT22;9863;49.404;8.246;2023-02-28T16:51:56;4.80;99.90
19449;DHT22;9863;49.404;8.246;2023-02-28T16:54:23;4.60;99.90
19449;DHT22;9863;49.404;8.246;2023-02-28T16:56:51;4.50;99.90
19449;DHT22;9863;49.404;8.246;2023-02-28T16:59:22;4.50;99.90
19449;DHT22;9863;49.404;8.246;2023-02-28T17:01:51;4.40;99.90
19449;DHT22;9863;49.404;8.246;2023-02-28T17:04:18;4.30;99.90
19449;DHT22;9863;49.404;8.246;2023-02-28T17:06:45;4.20;99.90
19449;DHT22;9863;49.404;8.246;2023-02-28T17:09:16;4.20;99.90
19449;DHT22;9863;49.404;8.246;2023-02-28T17:11:45;4.00;99.90
19449;DHT22;9863;49.404;8.246;2023-02-28T17:14:13;4.00;99.90
19449;DHT22;9863;49.404;8.246;2023-02-28T17:16:42;3.90;99.90
19449;DHT22;9863;49.404;8.246;2023-02-28T17:19:12;3.90;99.90
19449;DHT22;9863;49.404;8.246;2023-02-28T17:21:41;3.80;99.90
19449;DHT22;9863;49.404;8.246;2023-02-28T17:24:09;3.80;99.90
19449;DHT22;9863;49.404;8.246;2023-02-28T17:26:55;3.60;99.90
19449;DHT22;9863;49.404;8.246;2023-02-28T17:29:22;3.50;99.90
19449;DHT22;9863;49.404;8.246;2023-02-28T17:31:51;3.40;99.90
19449;DHT22;9863;49.404;8.246;2023-02-28T17:34:18;3.40;99.90
19449;DHT22;9863;49.404;8.246;2023-02-28T17:36:47;3.30;99.90
19449;DHT22;9863;49.404;8.246;2023-02-28T17:39:17;3.10;99.90
19449;DHT22;9863;49.404;8.246;2023-02-28T17:41:52;2.90;99.90
19449;DHT22;9863;49.404;8.246;2023-02-28T17:44:20;3.00;99.90
19449;DHT22;9863;49.404;8.246;2023-02-28T17:46:48;2.90;99.90
19449;DHT22;9863;49.404;8.246;2023-02-28T17:49:17;2.90;99.90
19449;DHT22;9863;49.404;8.246;2023-02-28T17:51:44;2.90;99.90
19449;DHT22;9863;49.404;8.246;2023-02-28T17:54:13;2.80;99.90
19449;DHT22;9863;49.404;8.246;2023-02-28T17:56:43;2.70;99.90
19449;DHT22;9863;49.404;8.246;2023-02-28T17:59:11;2.60;99.90
19449;DHT22;9863;49.404;8.246;2023-02-28T18:01:39;3.10;99.90
19449;DHT22;9863;49.404;8.246;2023-02-28T18:04:07;2.40;99.90
19449;DHT22;9863;49.404;8.246;2023-02-28T18:06:40;2.40;99.90
19449;DHT22;9863;49.404;8.246;2023-02-28T18:09:21;2.40;99.90
19449;DHT22;9863;49.404;8.246;2023-02-28T18:11:50;2.50;99.90
19449;DHT22;9863;49.404;8.246;2023-02-28T18:14:21;2.30;99.90
19449;DHT22;9863;49.404;8.246;2023-02-28T18:16:51;2.30;99.90
19449;DHT22;9863;49.404;8.246;2023-02-28T18:19:19;2.30;99.90
19449;DHT22;9863;49.404;8.246;2023-02-28T18:21:49;2.30;99.90
19449;DHT22;9863;49.404;8.246;2023-02-28T18:24:22;2.70;99.90
19449;DHT22;9863;49.404;8.246;2023-02-28T18:26:50;2.50;99.90
19449;DHT22;9863;49.404;8.246;2023-02-28T18:29:23;2.20;99.90
19449;DHT22;9863;49.404;8.246;2023-02-28T18:31:53;2.30;99.90
19449;DHT22;9863;49.404;8.246;2023-02-28T18:34:23;2.70;99.90
19449;DHT22;9863;49.404;8.246;2023-02-28T18:36:52;2.20;99.90
19449;DHT22;9863;49.404;8.246;2023-02-28T18:39:20;2.10;99.90
19449;DHT22;9863;49.404;8.246;2023-02-28T18:41:48;2.00;99.90
19449;DHT22;9863;49.404;8.246;2023-02-28T18:44:16;2.00;99.90
19449;DHT22;9863;49.404;8.246;2023-02-28T18:46:48;1.90;99.90
19449;DHT22;9863;49.404;8.246;2023-02-28T18:49:16;1.90;99.90
19449;DHT22;9863;49.404;8.246;2023-02-28T18:51:44;1.90;99.90
19449;DHT22;9863;49.404;8.246;2023-02-28T18:54:13;2.00;99.90
19449;DHT22;9863;49.404;8.246;2023-02-28T18:56:41;1.70;99.90
19449;DHT22;9863;49.404;8.246;2023-02-28T18:59:09;1.70;99.90
19449;DHT22;9863;49.404;8.246;2023-02-28T19:01:37;1.70;99.90
19449;DHT22;9863;49.404;8.246;2023-02-28T19:04:04;1.70;99.90
19449;DHT22;9863;49.404;8.246;2023-02-28T19:06:32;1.70;99.90
19449;DHT22;9863;49.404;8.246;2023-02-28T19:09:01;1.60;99.90
19449;DHT22;9863;49.404;8.246;2023-02-28T19:11:29;1.70;99.90
19449;DHT22;9863;49.404;8.246;2023-02-28T19:13:57;1.60;99.90
19449;DHT22;9863;49.404;8.246;2023-02-28T19:16:24;1.80;99.90
19449;DHT22;9863;49.404;8.246;2023-02-28T19:18:54;1.50;99.90
19449;DHT22;9863;49.404;8.246;2023-02-28T19:21:22;1.50;99.90
19449;DHT22;9863;49.404;8.246;2023-02-28T19:23:51;1.50;99.90
19449;DHT22;9863;49.404;8.246;2023-02-28T19:26:21;1.60;99.90
19449;DHT22;9863;49.404;8.246;2023-02-28T19:28:49;1.20;99.90